sensor_id;sensor_type;location;lat;lon;timestamp;temperature;humidity
16513;DHT22;8369;48.030;11.598;2023-02-27T00:01:25;-1.10;99.90
16513;DHT22;8369;48.030;11.598;2023-02-27T00:03:50;-1.10;99.90
16513;DHT22;8369;48.030;11.598;2023-02-27T00:06:16;-1.10;99.90
16513;DHT22;8369;48.030;11.598;2023-02-27T00:08:43;-1.10;99.90
16513;DHT22;8369;48.030;11.598;2023-02-27T00:11:08;-1.10;99.90
16513;DHT22;8369;48.030;11.598;2023-02-27T00:13:34;-1.10;99.90
16513;DHT22;8369;48.030;11.598;2023-02-27T00:16:01;-1.10;99.90
16513;DHT22;8369;48.030;11.598;2023-02-27T00:18:26;-1.10;99.90
16513;DHT22;8369;48.030;11.598;2023-02-27T00:20:53;-1.10;99.90
16513;DHT22;8369;48.030;11.598;2023-02-27T00:23:18;-1.10;99.90
16513;DHT22;8369;48.030;11.598;2023-02-27T00:25:44;-1.10;99.90
16513;DHT22;8369;48.030;11.598;2023-02-27T00:28:10;-1.10;99.90
16513;DHT22;8369;48.030;11.598;2023-02-27T00:30:36;-1.10;99.90
16513;DHT22;8369;48.030;11.598;2023-02-27T00:33:02;-1.10;99.90
16513;DHT22;8369;48.030;11.598;2023-02-27T00:35:28;-1.10;99.90
16513;DHT22;8369;48.030;11.598;2023-02-27T00:37:54;-1.10;99.90
16513;DHT22;8369;48.030;11.598;2023-02-27T00:40:19;-1.20;99.90
16513;DHT22;8369;48.030;11.598;2023-02-27T00:42:45;-1.20;99.90
16513;DHT22;8369;48.030;11.598;2023-02-27T00:45:13;-1.20;99.90
16513;DHT22;8369;48.030;11.598;2023-02-27T00:47:39;-1.20;99.90
16513;DHT22;8369;48.030;11.598;2023-02-27T00:50:05;-1.30;99.90
16513;DHT22;8369;48.030;11.598;2023-02-27T00:52:31;-1.30;99.90
16513;DHT22;8369;48.030;11.598;2023-02-27T00:54:58;-1.30;99.90
16513;DHT22;8369;48.030;11.598;2023-02-27T00:57:24;-1.30;99.90
16513;DHT22;8369;48.030;11.598;2023-02-27T00:59:50;-1.30;99.90
16513;DHT22;8369;48.030;11.598;2023-02-27T01:02:16;-1.30;99.90
16513;DHT22;8369;48.030;11.598;2023-02-27T01:04:41;-1.30;99.90
16513;DHT22;8369;48.030;11.598;2023-02-27T01:07:08;-1.30;99.90
16513;DHT22;8369;48.030;11.598;2023-02-27T01:09:34;-1.40;99.90
16513;DHT22;8369;48.030;11.598;2023-02-27T01:11:59;-1.30;99.90
16513;DHT22;8369;48.030;11.598;2023-02-27T01:14:25;-1.30;99.90
16513;DHT22;8369;48.030;11.598;2023-02-27T01:16:51;-1.30;99.90
16513;DHT22;8369;48.030;11.598;2023-02-27T01:19:17;-1.30;99.90
16513;DHT22;8369;48.030;11.598;2023-02-27T01:21:43;-1.40;99.90
16513;DHT22;8369;48.030;11.598;2023-02-27T01:24:09;-1.30;99.90
16513;DHT22;8369;48.030;11.598;2023-02-27T01:26:34;-1.30;99.90
16513;DHT22;8369;48.030;11.598;2023-02-27T01:29:00;-1.30;99.90
16513;DHT22;8369;48.030;11.598;2023-02-27T01:31:26;-1.30;99.90
16513;DHT22;8369;48.030;11.598;2023-02-27T01:33:52;-1.30;99.90
16513;DHT22;8369;48.030;11.598;2023-02-27T01:36:17;-1.30;99.90
16513;DHT22;8369;48.030;11.598;2023-02-27T01:38:43;-1.30;99.90
16513;DHT22;8369;48.030;11.598;2023-02-27T01:41:09;-1.30;99.90
16513;DHT22;8369;48.030;11.598;2023-02-27T01:43:56;-1.30;99.90
16513;DHT22;8369;48.030;11.598;2023-02-27T01:46:23;-1.30;99.90
16513;DHT22;8369;48.030;11.598;2023-02-27T01:48:50;-1.40;99.90
16513;DHT22;8369;48.030;11.598;2023-02-27T01:51:20;-1.40;99.90
16513;DHT22;8369;48.030;11.598;2023-02-27T01:53:50;-1.40;99.90
16513;DHT22;8369;48.030;11.598;2023-02-27T01:56:24;-1.40;99.90
16513;DHT22;8369;48.030;11.598;2023-02-27T01:58:53;-1.40;99.90
16513;DHT22;8369;48.030;11.598;2023-02-27T02:01:21;-1.40;99.90
16513;DHT22;8369;48.030;11.598;2023-02-27T02:03:49;-1.40;99.90
16513;DHT22;8369;48.030;11.598;2023-02-27T02:06:17;-1.50;99.90
16513;DHT22;8369;48.030;11.598;2023-02-27T02:08:46;-1.40;99.90
16513;DHT22;8369;48.030;11.598;2023-02-27T02:11:14;-1.40;99.90
16513;DHT22;8369;48.030;11.598;2023-02-27T02:13:41;-1.40;99.90
16513;DHT22;8369;48.030;11.598;2023-02-27T02:27:48;-1.30;99.90
16513;DHT22;8369;48.030;11.598;2023-02-27T02:36:11;-1.30;99.90
16513;DHT22;8369;48.030;11.598;2023-02-27T02:44:40;-1.40;99.90
16513;DHT22;8369;48.030;11.598;2023-02-27T02:47:15;-1.40;99.90
16513;DHT22;8369;48.030;11.598;2023-02-27T02:56:02;-1.30;99.90
16513;DHT22;8369;48.030;11.598;2023-02-27T03:01:09;-1.30;99.90
16513;DHT22;8369;48.030;11.598;2023-02-27T03:03:40;-1.30;99.90
16513;DHT22;8369;48.030;11.598;2023-02-27T03:06:13;-1.30;99.90
16513;DHT22;8369;48.030;11.598;2023-02-27T03:08:47;-1.30;99.90
16513;DHT22;8369;48.030;11.598;2023-02-27T03:11:14;-1.30;99.90
16513;DHT22;8369;48.030;11.598;2023-02-27T03:14:08;-1.40;99.90
16513;DHT22;8369;48.030;11.598;2023-02-27T03:16:39;-1.40;99.90
16513;DHT22;8369;48.030;11.598;2023-02-27T03:19:10;-1.40;99.90
16513;DHT22;8369;48.030;11.598;2023-02-27T03:21:48;-1.40;99.90
16513;DHT22;8369;48.030;11.598;2023-02-27T03:24:22;-1.40;99.90
16513;DHT22;8369;48.030;11.598;2023-02-27T03:26:50;-1.40;99.90
16513;DHT22;8369;48.030;11.598;2023-02-27T03:29:37;-1.40;99.90
16513;DHT22;8369;48.030;11.598;2023-02-27T03:32:20;-1.50;99.90
16513;DHT22;8369;48.030;11.598;2023-02-27T03:34:47;-1.50;99.90
16513;DHT22;8369;48.030;11.598;2023-02-27T03:42:43;-1.50;99.90
16513;DHT22;8369;48.030;11.598;2023-02-27T03:45:39;-1.50;99.90
16513;DHT22;8369;48.030;11.598;2023-02-27T03:48:06;-1.50;99.90
16513;DHT22;8369;48.030;11.598;2023-02-27T03:50:34;-1.40;99.90
16513;DHT22;8369;48.030;11.598;2023-02-27T03:53:07;-1.50;99.90
16513;DHT22;8369;48.030;11.598;2023-02-27T03:55:38;-1.50;99.90
16513;DHT22;8369;48.030;11.598;2023-02-27T03:58:05;-1.50;99.90
16513;DHT22;8369;48.030;11.598;2023-02-27T04:00:31;-1.50;99.90
16513;DHT22;8369;48.030;11.598;2023-02-27T04:02:59;-1.40;99.90
16513;DHT22;8369;48.030;11.598;2023-02-27T04:05:26;-1.40;99.90
16513;DHT22;8369;48.030;11.598;2023-02-27T04:11:12;-1.40;99.90
16513;DHT22;8369;48.030;11.598;2023-02-27T04:14:03;-1.40;99.90
16513;DHT22;8369;48.030;11.598;2023-02-27T04:16:55;-1.40;99.90
16513;DHT22;8369;48.030;11.598;2023-02-27T04:24:56;-1.50;99.90
16513;DHT22;8369;48.030;11.598;2023-02-27T04:32:50;-1.50;99.90
16513;DHT22;8369;48.030;11.598;2023-02-27T04:35:24;-1.50;99.90
16513;DHT22;8369;48.030;11.598;2023-02-27T04:37:59;-1.50;99.90
16513;DHT22;8369;48.030;11.598;2023-02-27T04:40:32;-1.50;99.90
16513;DHT22;8369;48.030;11.598;2023-02-27T04:43:00;-1.50;99.90
16513;DHT22;8369;48.030;11.598;2023-02-27T04:45:28;-1.50;99.90
16513;DHT22;8369;48.030;11.598;2023-02-27T04:48:01;-1.50;99.90
16513;DHT22;8369;48.030;11.598;2023-02-27T04:50:37;-1.50;99.90
16513;DHT22;8369;48.030;11.598;2023-02-27T04:53:13;-1.50;99.90
16513;DHT22;8369;48.030;11.598;2023-02-27T04:55:47;-1.50;99.90
16513;DHT22;8369;48.030;11.598;2023-02-27T04:58:27;-1.40;99.90
16513;DHT22;8369;48.030;11.598;2023-02-27T05:01:15;-1.50;99.90
16513;DHT22;8369;48.030;11.598;2023-02-27T05:03:46;-1.50;99.90
16513;DHT22;8369;48.030;11.598;2023-02-27T05:06:17;-1.50;99.90
16513;DHT22;8369;48.030;11.598;2023-02-27T05:11:38;-1.50;99.90
16513;DHT22;8369;48.030;11.598;2023-02-27T05:14:28;-1.50;99.90
16513;DHT22;8369;48.030;11.598;2023-02-27T05:19:59;-1.60;99.90
16513;DHT22;8369;48.030;11.598;2023-02-27T05:22:45;-1.50;99.90
16513;DHT22;8369;48.030;11.598;2023-02-27T05:25:19;-1.60;99.90
16513;DHT22;8369;48.030;11.598;2023-02-27T05:27:53;-1.60;99.90
16513;DHT22;8369;48.030;11.598;2023-02-27T05:30:33;-1.60;99.90
16513;DHT22;8369;48.030;11.598;2023-02-27T05:33:05;-1.60;99.90
16513;DHT22;8369;48.030;11.598;2023-02-27T05:35:54;-1.60;99.90
16513;DHT22;8369;48.030;11.598;2023-02-27T05:38:33;-1.60;99.90
16513;DHT22;8369;48.030;11.598;2023-02-27T05:41:23;-1.60;99.90
16513;DHT22;8369;48.030;11.598;2023-02-27T05:43:52;-1.70;99.90
16513;DHT22;8369;48.030;11.598;2023-02-27T05:46:29;-1.60;99.90
16513;DHT22;8369;48.030;11.598;2023-02-27T05:49:00;-1.60;99.90
16513;DHT22;8369;48.030;11.598;2023-02-27T05:51:31;-1.60;99.90
16513;DHT22;8369;48.030;11.598;2023-02-27T05:54:18;-1.60;99.90
16513;DHT22;8369;48.030;11.598;2023-02-27T05:56:46;-1.70;99.90
16513;DHT22;8369;48.030;11.598;2023-02-27T05:59:21;-1.70;99.90
16513;DHT22;8369;48.030;11.598;2023-02-27T06:01:48;-1.70;99.90
16513;DHT22;8369;48.030;11.598;2023-02-27T06:04:14;-1.70;99.90
16513;DHT22;8369;48.030;11.598;2023-02-27T06:06:39;-1.70;99.90
16513;DHT22;8369;48.030;11.598;2023-02-27T06:09:08;-1.80;99.90
16513;DHT22;8369;48.030;11.598;2023-02-27T06:11:34;-1.80;99.90
16513;DHT22;8369;48.030;11.598;2023-02-27T06:14:02;-1.70;99.90
16513;DHT22;8369;48.030;11.598;2023-02-27T06:16:28;-1.80;99.90
16513;DHT22;8369;48.030;11.598;2023-02-27T06:18:53;-1.80;99.90
16513;DHT22;8369;48.030;11.598;2023-02-27T06:21:19;-1.80;99.90
16513;DHT22;8369;48.030;11.598;2023-02-27T06:23:45;-1.80;99.90
16513;DHT22;8369;48.030;11.598;2023-02-27T06:26:11;-1.70;99.90
16513;DHT22;8369;48.030;11.598;2023-02-27T06:28:39;-1.80;99.90
16513;DHT22;8369;48.030;11.598;2023-02-27T06:31:05;-1.80;99.90
16513;DHT22;8369;48.030;11.598;2023-02-27T06:33:31;-1.70;99.90
16513;DHT22;8369;48.030;11.598;2023-02-27T06:35:57;-1.70;99.90
16513;DHT22;8369;48.030;11.598;2023-02-27T06:38:23;-1.80;99.90
16513;DHT22;8369;48.030;11.598;2023-02-27T06:40:50;-1.80;99.90
16513;DHT22;8369;48.030;11.598;2023-02-27T06:43:15;-1.70;99.90
16513;DHT22;8369;48.030;11.598;2023-02-27T06:45:41;-1.70;99.90
16513;DHT22;8369;48.030;11.598;2023-02-27T06:48:08;-1.70;99.90
16513;DHT22;8369;48.030;11.598;2023-02-27T06:50:35;-1.70;99.90
16513;DHT22;8369;48.030;11.598;2023-02-27T06:53:01;-1.60;99.90
16513;DHT22;8369;48.030;11.598;2023-02-27T06:55:27;-1.60;99.90
16513;DHT22;8369;48.030;11.598;2023-02-27T06:57:53;-1.70;99.90
16513;DHT22;8369;48.030;11.598;2023-02-27T07:00:19;-1.60;99.90
16513;DHT22;8369;48.030;11.598;2023-02-27T07:02:45;-1.60;99.90
16513;DHT22;8369;48.030;11.598;2023-02-27T07:05:10;-1.60;99.90
16513;DHT22;8369;48.030;11.598;2023-02-27T07:07:36;-1.60;99.90
16513;DHT22;8369;48.030;11.598;2023-02-27T07:10:04;-1.50;99.90
16513;DHT22;8369;48.030;11.598;2023-02-27T07:12:30;-1.50;99.90
16513;DHT22;8369;48.030;11.598;2023-02-27T07:14:55;-1.50;99.90
16513;DHT22;8369;48.030;11.598;2023-02-27T07:17:21;-1.50;99.90
16513;DHT22;8369;48.030;11.598;2023-02-27T07:19:47;-1.40;99.90
16513;DHT22;8369;48.030;11.598;2023-02-27T07:22:13;-1.40;99.90
16513;DHT22;8369;48.030;11.598;2023-02-27T07:24:38;-1.40;99.90
16513;DHT22;8369;48.030;11.598;2023-02-27T07:27:04;-1.30;99.90
16513;DHT22;8369;48.030;11.598;2023-02-27T07:29:30;-1.30;99.90
16513;DHT22;8369;48.030;11.598;2023-02-27T07:31:56;-1.30;99.90
16513;DHT22;8369;48.030;11.598;2023-02-27T07:34:21;-1.30;99.90
16513;DHT22;8369;48.030;11.598;2023-02-27T07:36:47;-1.20;99.90
16513;DHT22;8369;48.030;11.598;2023-02-27T07:39:13;-1.30;99.90
16513;DHT22;8369;48.030;11.598;2023-02-27T07:41:41;-1.20;99.90
16513;DHT22;8369;48.030;11.598;2023-02-27T07:44:06;-1.20;99.90
16513;DHT22;8369;48.030;11.598;2023-02-27T07:46:33;-1.20;99.90
16513;DHT22;8369;48.030;11.598;2023-02-27T07:48:59;-1.20;99.90
16513;DHT22;8369;48.030;11.598;2023-02-27T07:51:25;-1.20;99.90
16513;DHT22;8369;48.030;11.598;2023-02-27T07:53:50;-1.10;99.90
16513;DHT22;8369;48.030;11.598;2023-02-27T07:56:16;-1.10;99.90
16513;DHT22;8369;48.030;11.598;2023-02-27T07:58:42;-1.10;99.90
16513;DHT22;8369;48.030;11.598;2023-02-27T08:01:08;-1.00;99.90
16513;DHT22;8369;48.030;11.598;2023-02-27T08:03:34;-1.00;99.90
16513;DHT22;8369;48.030;11.598;2023-02-27T08:05:59;-1.00;99.90
16513;DHT22;8369;48.030;11.598;2023-02-27T08:08:25;-1.00;99.90
16513;DHT22;8369;48.030;11.598;2023-02-27T08:10:51;-1.00;99.90
16513;DHT22;8369;48.030;11.598;2023-02-27T08:13:17;-0.90;99.90
16513;DHT22;8369;48.030;11.598;2023-02-27T08:15:42;-0.90;99.90
16513;DHT22;8369;48.030;11.598;2023-02-27T08:18:08;-0.90;99.90
16513;DHT22;8369;48.030;11.598;2023-02-27T08:20:34;-0.90;99.90
16513;DHT22;8369;48.030;11.598;2023-02-27T08:23:01;-0.90;99.90
16513;DHT22;8369;48.030;11.598;2023-02-27T08:25:27;-0.90;99.90
16513;DHT22;8369;48.030;11.598;2023-02-27T08:27:54;-0.80;99.90
16513;DHT22;8369;48.030;11.598;2023-02-27T08:30:20;-0.80;99.90
16513;DHT22;8369;48.030;11.598;2023-02-27T08:32:46;-0.80;99.90
16513;DHT22;8369;48.030;11.598;2023-02-27T08:35:12;-0.80;99.90
16513;DHT22;8369;48.030;11.598;2023-02-27T08:37:38;-0.80;99.90
16513;DHT22;8369;48.030;11.598;2023-02-27T08:40:04;-0.80;99.90
16513;DHT22;8369;48.030;11.598;2023-02-27T08:42:35;-0.70;99.90
16513;DHT22;8369;48.030;11.598;2023-02-27T08:45:01;-0.70;99.90
16513;DHT22;8369;48.030;11.598;2023-02-27T08:47:27;-0.70;99.90
16513;DHT22;8369;48.030;11.598;2023-02-27T08:49:52;-0.60;99.90
16513;DHT22;8369;48.030;11.598;2023-02-27T08:52:18;-0.60;99.90
16513;DHT22;8369;48.030;11.598;2023-02-27T08:54:44;-0.50;99.90
16513;DHT22;8369;48.030;11.598;2023-02-27T08:57:09;-0.50;99.90
16513;DHT22;8369;48.030;11.598;2023-02-27T08:59:35;-0.40;99.90
16513;DHT22;8369;48.030;11.598;2023-02-27T09:02:01;-0.40;99.90
16513;DHT22;8369;48.030;11.598;2023-02-27T09:04:27;-0.30;99.90
16513;DHT22;8369;48.030;11.598;2023-02-27T09:06:52;-0.30;99.90
16513;DHT22;8369;48.030;11.598;2023-02-27T09:09:18;-0.30;99.90
16513;DHT22;8369;48.030;11.598;2023-02-27T09:11:44;-0.40;99.90
16513;DHT22;8369;48.030;11.598;2023-02-27T09:14:11;-0.30;99.90
16513;DHT22;8369;48.030;11.598;2023-02-27T09:16:38;-0.30;99.90
16513;DHT22;8369;48.030;11.598;2023-02-27T09:19:04;-0.30;99.90
16513;DHT22;8369;48.030;11.598;2023-02-27T09:21:30;-0.20;99.90
16513;DHT22;8369;48.030;11.598;2023-02-27T09:23:56;-0.20;99.90
16513;DHT22;8369;48.030;11.598;2023-02-27T09:26:25;-0.10;99.90
16513;DHT22;8369;48.030;11.598;2023-02-27T09:28:51;-0.10;99.90
16513;DHT22;8369;48.030;11.598;2023-02-27T09:31:17;-0.10;99.90
16513;DHT22;8369;48.030;11.598;2023-02-27T09:33:43;0.00;99.90
16513;DHT22;8369;48.030;11.598;2023-02-27T09:36:09;0.00;99.90
16513;DHT22;8369;48.030;11.598;2023-02-27T09:38:36;-0.10;99.90
16513;DHT22;8369;48.030;11.598;2023-02-27T09:41:04;-0.10;99.90
16513;DHT22;8369;48.030;11.598;2023-02-27T09:43:43;-0.10;99.90
16513;DHT22;8369;48.030;11.598;2023-02-27T09:46:19;-0.20;99.90
16513;DHT22;8369;48.030;11.598;2023-02-27T09:48:52;-0.20;99.90
16513;DHT22;8369;48.030;11.598;2023-02-27T09:51:19;-0.20;99.90
16513;DHT22;8369;48.030;11.598;2023-02-27T09:53:48;-0.10;99.90
16513;DHT22;8369;48.030;11.598;2023-02-27T09:56:22;0.00;99.90
16513;DHT22;8369;48.030;11.598;2023-02-27T09:58:57;-0.10;99.90
16513;DHT22;8369;48.030;11.598;2023-02-27T10:01:36;-0.10;99.90
16513;DHT22;8369;48.030;11.598;2023-02-27T10:04:28;-0.10;99.90
16513;DHT22;8369;48.030;11.598;2023-02-27T10:15:07;0.00;99.90
16513;DHT22;8369;48.030;11.598;2023-02-27T10:17:40;0.10;99.90
16513;DHT22;8369;48.030;11.598;2023-02-27T10:20:13;0.20;99.90
16513;DHT22;8369;48.030;11.598;2023-02-27T10:22:43;0.20;99.90
16513;DHT22;8369;48.030;11.598;2023-02-27T10:25:15;0.30;99.90
16513;DHT22;8369;48.030;11.598;2023-02-27T10:27:47;0.30;99.90
16513;DHT22;8369;48.030;11.598;2023-02-27T10:30:15;0.30;99.90
16513;DHT22;8369;48.030;11.598;2023-02-27T10:32:43;0.30;99.90
16513;DHT22;8369;48.030;11.598;2023-02-27T10:35:31;0.40;99.90
16513;DHT22;8369;48.030;11.598;2023-02-27T10:38:01;0.40;99.90
16513;DHT22;8369;48.030;11.598;2023-02-27T10:40:28;0.40;99.90
16513;DHT22;8369;48.030;11.598;2023-02-27T10:42:58;0.40;99.90
16513;DHT22;8369;48.030;11.598;2023-02-27T10:45:24;0.30;99.90
16513;DHT22;8369;48.030;11.598;2023-02-27T10:47:50;0.30;99.90
16513;DHT22;8369;48.030;11.598;2023-02-27T10:50:23;0.20;99.90
16513;DHT22;8369;48.030;11.598;2023-02-27T10:52:52;0.10;99.90
16513;DHT22;8369;48.030;11.598;2023-02-27T10:55:23;0.20;99.90
16513;DHT22;8369;48.030;11.598;2023-02-27T10:57:52;0.20;99.90
16513;DHT22;8369;48.030;11.598;2023-02-27T11:02:52;0.10;99.90
16513;DHT22;8369;48.030;11.598;2023-02-27T11:05:39;0.20;99.90
16513;DHT22;8369;48.030;11.598;2023-02-27T11:08:22;0.20;99.90
16513;DHT22;8369;48.030;11.598;2023-02-27T11:11:10;0.20;99.90
16513;DHT22;8369;48.030;11.598;2023-02-27T11:13:37;0.30;99.90
16513;DHT22;8369;48.030;11.598;2023-02-27T11:16:11;0.30;99.90
16513;DHT22;8369;48.030;11.598;2023-02-27T11:18:39;0.20;99.90
16513;DHT22;8369;48.030;11.598;2023-02-27T11:23:37;0.30;99.90
16513;DHT22;8369;48.030;11.598;2023-02-27T11:29:11;0.30;99.90
16513;DHT22;8369;48.030;11.598;2023-02-27T11:31:44;0.40;99.90
16513;DHT22;8369;48.030;11.598;2023-02-27T11:34:29;0.40;99.90
16513;DHT22;8369;48.030;11.598;2023-02-27T11:37:18;0.50;99.90
16513;DHT22;8369;48.030;11.598;2023-02-27T11:39:51;0.40;99.90
16513;DHT22;8369;48.030;11.598;2023-02-27T11:42:25;0.40;99.90
16513;DHT22;8369;48.030;11.598;2023-02-27T11:44:56;0.40;99.90
16513;DHT22;8369;48.030;11.598;2023-02-27T11:47:29;0.40;99.90
16513;DHT22;8369;48.030;11.598;2023-02-27T11:55:18;0.40;99.90
16513;DHT22;8369;48.030;11.598;2023-02-27T11:57:49;0.40;99.90
16513;DHT22;8369;48.030;11.598;2023-02-27T12:00:30;0.40;99.90
16513;DHT22;8369;48.030;11.598;2023-02-27T12:02:59;0.40;99.90
16513;DHT22;8369;48.030;11.598;2023-02-27T12:05:39;0.30;99.90
16513;DHT22;8369;48.030;11.598;2023-02-27T12:08:36;0.20;99.90
16513;DHT22;8369;48.030;11.598;2023-02-27T12:13:45;0.20;99.90
16513;DHT22;8369;48.030;11.598;2023-02-27T12:19:01;0.00;99.90
16513;DHT22;8369;48.030;11.598;2023-02-27T12:21:37;-0.10;99.90
16513;DHT22;8369;48.030;11.598;2023-02-27T12:24:07;0.00;99.90
16513;DHT22;8369;48.030;11.598;2023-02-27T12:26:37;0.00;99.90
16513;DHT22;8369;48.030;11.598;2023-02-27T12:29:37;0.00;99.90
16513;DHT22;8369;48.030;11.598;2023-02-27T12:32:23;0.10;99.90
16513;DHT22;8369;48.030;11.598;2023-02-27T12:34:58;0.20;99.90
16513;DHT22;8369;48.030;11.598;2023-02-27T12:37:27;0.20;99.90
16513;DHT22;8369;48.030;11.598;2023-02-27T12:39:55;0.20;99.90
16513;DHT22;8369;48.030;11.598;2023-02-27T12:45:47;0.30;99.90
16513;DHT22;8369;48.030;11.598;2023-02-27T12:56:20;-0.10;99.90
16513;DHT22;8369;48.030;11.598;2023-02-27T13:04:31;0.00;99.90
16513;DHT22;8369;48.030;11.598;2023-02-27T13:07:08;0.10;99.90
16513;DHT22;8369;48.030;11.598;2023-02-27T13:09:47;0.10;99.90
16513;DHT22;8369;48.030;11.598;2023-02-27T13:15:03;0.10;99.90
16513;DHT22;8369;48.030;11.598;2023-02-27T13:17:36;0.20;99.90
16513;DHT22;8369;48.030;11.598;2023-02-27T13:22:52;0.10;99.90
16513;DHT22;8369;48.030;11.598;2023-02-27T13:25:19;0.00;99.90
16513;DHT22;8369;48.030;11.598;2023-02-27T13:28:07;0.00;99.90
16513;DHT22;8369;48.030;11.598;2023-02-27T13:30:38;0.10;99.90
16513;DHT22;8369;48.030;11.598;2023-02-27T13:36:16;0.10;99.90
16513;DHT22;8369;48.030;11.598;2023-02-27T13:38:47;0.10;99.90
16513;DHT22;8369;48.030;11.598;2023-02-27T13:46:30;0.10;99.90
16513;DHT22;8369;48.030;11.598;2023-02-27T13:56:32;0.10;99.90
16513;DHT22;8369;48.030;11.598;2023-02-27T13:59:20;0.10;99.90
16513;DHT22;8369;48.030;11.598;2023-02-27T14:02:00;0.20;99.90
16513;DHT22;8369;48.030;11.598;2023-02-27T14:04:29;0.10;99.90
16513;DHT22;8369;48.030;11.598;2023-02-27T14:07:02;0.10;99.90
16513;DHT22;8369;48.030;11.598;2023-02-27T14:09:50;0.00;99.90
16513;DHT22;8369;48.030;11.598;2023-02-27T14:12:28;0.00;99.90
16513;DHT22;8369;48.030;11.598;2023-02-27T14:14:55;-0.10;99.90
16513;DHT22;8369;48.030;11.598;2023-02-27T14:20:12;-0.20;99.90
16513;DHT22;8369;48.030;11.598;2023-02-27T14:25:15;-0.20;99.90
16513;DHT22;8369;48.030;11.598;2023-02-27T14:30:25;-0.20;99.90
16513;DHT22;8369;48.030;11.598;2023-02-27T14:33:14;-0.20;99.90
16513;DHT22;8369;48.030;11.598;2023-02-27T14:35:52;-0.30;99.90
16513;DHT22;8369;48.030;11.598;2023-02-27T14:38:20;-0.30;99.90
16513;DHT22;8369;48.030;11.598;2023-02-27T14:43:55;-0.20;99.90
16513;DHT22;8369;48.030;11.598;2023-02-27T14:46:27;-0.20;99.90
16513;DHT22;8369;48.030;11.598;2023-02-27T14:48:56;-0.30;99.90
16513;DHT22;8369;48.030;11.598;2023-02-27T14:51:23;-0.20;99.90
16513;DHT22;8369;48.030;11.598;2023-02-27T14:56:25;-0.20;99.90
16513;DHT22;8369;48.030;11.598;2023-02-27T14:58:50;-0.20;99.90
16513;DHT22;8369;48.030;11.598;2023-02-27T15:01:18;-0.10;99.90
16513;DHT22;8369;48.030;11.598;2023-02-27T15:03:47;-0.10;99.90
16513;DHT22;8369;48.030;11.598;2023-02-27T15:06:35;-0.10;99.90
16513;DHT22;8369;48.030;11.598;2023-02-27T15:09:01;-0.10;99.90
16513;DHT22;8369;48.030;11.598;2023-02-27T15:11:28;-0.20;99.90
16513;DHT22;8369;48.030;11.598;2023-02-27T15:14:02;-0.20;99.90
16513;DHT22;8369;48.030;11.598;2023-02-27T15:19:15;-0.10;99.90
16513;DHT22;8369;48.030;11.598;2023-02-27T15:21:53;-0.10;99.90
16513;DHT22;8369;48.030;11.598;2023-02-27T15:24:22;0.00;99.90
16513;DHT22;8369;48.030;11.598;2023-02-27T15:27:00;0.00;99.90
16513;DHT22;8369;48.030;11.598;2023-02-27T15:29:33;0.00;99.90
16513;DHT22;8369;48.030;11.598;2023-02-27T15:31:59;-0.10;99.90
16513;DHT22;8369;48.030;11.598;2023-02-27T15:34:24;0.00;99.90
16513;DHT22;8369;48.030;11.598;2023-02-27T15:36:54;0.00;99.90
16513;DHT22;8369;48.030;11.598;2023-02-27T15:39:22;0.00;99.90
16513;DHT22;8369;48.030;11.598;2023-02-27T15:41:50;0.00;99.90
16513;DHT22;8369;48.030;11.598;2023-02-27T15:44:19;0.00;99.90
16513;DHT22;8369;48.030;11.598;2023-02-27T15:46:48;0.00;99.90
16513;DHT22;8369;48.030;11.598;2023-02-27T15:49:21;0.00;99.90
16513;DHT22;8369;48.030;11.598;2023-02-27T15:54:51;0.00;99.90
16513;DHT22;8369;48.030;11.598;2023-02-27T15:57:21;-0.10;99.90
16513;DHT22;8369;48.030;11.598;2023-02-27T15:59:48;-0.10;99.90
16513;DHT22;8369;48.030;11.598;2023-02-27T16:02:22;-0.10;99.90
16513;DHT22;8369;48.030;11.598;2023-02-27T16:04:50;-0.10;99.90
16513;DHT22;8369;48.030;11.598;2023-02-27T16:07:21;-0.10;99.90
16513;DHT22;8369;48.030;11.598;2023-02-27T16:09:55;-0.10;99.90
16513;DHT22;8369;48.030;11.598;2023-02-27T16:23:15;-0.30;99.90
16513;DHT22;8369;48.030;11.598;2023-02-27T16:25:57;-0.30;99.90
16513;DHT22;8369;48.030;11.598;2023-02-27T16:28:23;-0.30;99.90
16513;DHT22;8369;48.030;11.598;2023-02-27T16:30:52;-0.30;99.90
16513;DHT22;8369;48.030;11.598;2023-02-27T16:33:21;-0.40;99.90
16513;DHT22;8369;48.030;11.598;2023-02-27T16:36:21;-0.40;99.90
16513;DHT22;8369;48.030;11.598;2023-02-27T16:38:48;-0.40;99.90
16513;DHT22;8369;48.030;11.598;2023-02-27T16:41:15;-0.40;99.90
16513;DHT22;8369;48.030;11.598;2023-02-27T16:43:45;-0.40;99.90
16513;DHT22;8369;48.030;11.598;2023-02-27T16:46:16;-0.40;99.90
16513;DHT22;8369;48.030;11.598;2023-02-27T16:48:50;-0.50;99.90
16513;DHT22;8369;48.030;11.598;2023-02-27T16:51:19;-0.50;99.90
16513;DHT22;8369;48.030;11.598;2023-02-27T16:53:48;-0.50;99.90
16513;DHT22;8369;48.030;11.598;2023-02-27T16:56:15;-0.60;99.90
16513;DHT22;8369;48.030;11.598;2023-02-27T16:58:41;-0.60;99.90
16513;DHT22;8369;48.030;11.598;2023-02-27T17:01:07;-0.60;99.90
16513;DHT22;8369;48.030;11.598;2023-02-27T17:03:33;-0.60;99.90
16513;DHT22;8369;48.030;11.598;2023-02-27T17:05:59;-0.60;99.90
16513;DHT22;8369;48.030;11.598;2023-02-27T17:08:27;-0.60;99.90
16513;DHT22;8369;48.030;11.598;2023-02-27T17:10:53;-0.60;99.90
16513;DHT22;8369;48.030;11.598;2023-02-27T17:13:18;-0.60;99.90
16513;DHT22;8369;48.030;11.598;2023-02-27T17:15:44;-0.60;99.90
16513;DHT22;8369;48.030;11.598;2023-02-27T17:18:10;-0.60;99.90
16513;DHT22;8369;48.030;11.598;2023-02-27T17:20:35;-0.60;99.90
16513;DHT22;8369;48.030;11.598;2023-02-27T17:23:01;-0.60;99.90
16513;DHT22;8369;48.030;11.598;2023-02-27T17:25:27;-0.60;99.90
16513;DHT22;8369;48.030;11.598;2023-02-27T17:27:53;-0.70;99.90
16513;DHT22;8369;48.030;11.598;2023-02-27T17:30:19;-0.70;99.90
16513;DHT22;8369;48.030;11.598;2023-02-27T17:32:45;-0.80;99.90
16513;DHT22;8369;48.030;11.598;2023-02-27T17:35:11;-0.80;99.90
16513;DHT22;8369;48.030;11.598;2023-02-27T17:37:37;-0.80;99.90
16513;DHT22;8369;48.030;11.598;2023-02-27T17:40:06;-0.80;99.90
16513;DHT22;8369;48.030;11.598;2023-02-27T17:42:34;-0.80;99.90
16513;DHT22;8369;48.030;11.598;2023-02-27T17:45:01;-0.80;99.90
16513;DHT22;8369;48.030;11.598;2023-02-27T17:47:30;-0.90;99.90
16513;DHT22;8369;48.030;11.598;2023-02-27T17:49:55;-0.90;99.90
16513;DHT22;8369;48.030;11.598;2023-02-27T17:52:21;-0.90;99.90
16513;DHT22;8369;48.030;11.598;2023-02-27T17:54:47;-0.90;99.90
16513;DHT22;8369;48.030;11.598;2023-02-27T17:57:13;-0.90;99.90
16513;DHT22;8369;48.030;11.598;2023-02-27T17:59:39;-0.90;99.90
16513;DHT22;8369;48.030;11.598;2023-02-27T18:02:06;-0.90;99.90
16513;DHT22;8369;48.030;11.598;2023-02-27T18:04:34;-0.90;99.90
16513;DHT22;8369;48.030;11.598;2023-02-27T18:07:00;-0.90;99.90
16513;DHT22;8369;48.030;11.598;2023-02-27T18:09:25;-0.90;99.90
16513;DHT22;8369;48.030;11.598;2023-02-27T18:11:51;-1.00;99.90
16513;DHT22;8369;48.030;11.598;2023-02-27T18:14:17;-1.00;99.90
16513;DHT22;8369;48.030;11.598;2023-02-27T18:16:43;-1.00;99.90
16513;DHT22;8369;48.030;11.598;2023-02-27T18:19:09;-1.10;99.90
16513;DHT22;8369;48.030;11.598;2023-02-27T18:21:35;-1.10;99.90
16513;DHT22;8369;48.030;11.598;2023-02-27T18:24:01;-1.10;99.90
16513;DHT22;8369;48.030;11.598;2023-02-27T18:26:29;-1.20;99.90